Terminal Aerodrome Forecast
Issued by NWS Wilmington, OH

Current Version | Previous Version | Graphics & Text | Print | Product List | Glossary On
Versions: 1 2 3 4 5 6 7 8 9 10 11 12 13 14 15 16 17 18 19 20 21 22 23
000
FTUS41 KILN 301700
TAFILN
TAF
KILN 301730Z 3018/0118 24012KT P6SM VCTS SCT030CB BKN050
      TEMPO 3018/3021 25015G22KT 3SM -TSRA BR OVC020CB
     FM010000 24006KT P6SM SCT050
     FM010900 26003KT 5SM BR SCT004
      TEMPO 0110/0113 1SM BR BKN003
     FM011300 29007KT P6SM SCT030
      TEMPO 0114/0118 BKN025=

USA.gov is the U.S. government's official web portal to all federal, state and local government web resources and services.